Time;durP1;ratioP1;P1;durP2;ratioP2;P2;SDS_P1;SDS_P2;PMS_P1;PMS_P2;Temp;Humidity;BMP_temperature;BMP_pressure;BME280_temperature;BME280_humidity;BME280_pressure;Samples;Min_cycle;Max_cycle;Signal;HPM_P1;HPM_P2
2023/12/11 00:01:04;;;;;;;0.30;0.20;;;2.70;99.90;;;;;;5088062;28;20272;-76
2023/12/11 00:03:30;;;;;;;0.30;0.20;;;2.70;99.90;;;;;;5089643;28;20200;-76
2023/12/11 00:05:56;;;;;;;0.30;0.20;;;2.70;99.90;;;;;;5089300;28;20596;-76
2023/12/11 00:08:21;;;;;;;0.30;0.20;;;2.70;99.90;;;;;;5090070;28;20447;-79
2023/12/11 00:10:47;;;;;;;0.30;0.20;;;2.70;99.90;;;;;;5087718;28;20180;-79
2023/12/11 00:13:13;;;;;;;0.30;0.20;;;2.70;99.90;;;;;;5090054;28;20282;-79
2023/12/11 00:15:39;;;;;;;0.30;0.20;;;2.70;99.90;;;;;;5089499;28;20185;-76
2023/12/11 00:18:05;;;;;;;0.30;0.20;;;2.70;99.90;;;;;;5089211;28;20475;-76
2023/12/11 00:20:32;;;;;;;0.30;0.23;;;2.70;99.90;;;;;;5089487;28;20188;-76
2023/12/11 00:22:58;;;;;;;0.30;0.20;;;2.70;99.90;;;;;;5089332;28;20441;-76
2023/12/11 00:25:23;;;;;;;0.30;0.20;;;2.70;99.90;;;;;;5087834;28;20262;-76
2023/12/11 00:27:49;;;;;;;0.30;0.20;;;2.70;99.90;;;;;;5088089;28;20180;-76
2023/12/11 00:30:15;;;;;;;0.30;0.20;;;2.70;99.90;;;;;;5088745;28;20225;-76
2023/12/11 00:32:41;;;;;;;3.93;3.73;;;2.70;99.90;;;;;;5091896;28;20400;-76
2023/12/11 00:35:07;;;;;;;0.30;0.20;;;2.70;99.90;;;;;;5091785;28;20218;-76
2023/12/11 00:37:33;;;;;;;0.30;0.30;;;2.80;99.90;;;;;;5093483;28;20633;-76
2023/12/11 00:39:58;;;;;;;0.30;0.30;;;2.80;99.90;;;;;;5091660;28;20172;-76
2023/12/11 00:42:24;;;;;;;0.30;0.20;;;2.90;99.90;;;;;;5092027;28;20191;-77
2023/12/11 00:44:50;;;;;;;0.30;0.20;;;2.80;99.90;;;;;;5092932;28;20465;-76
2023/12/11 00:47:15;;;;;;;0.30;0.20;;;2.80;99.90;;;;;;5091856;28;20234;-77
2023/12/11 00:49:42;;;;;;;0.30;0.20;;;2.80;99.90;;;;;;5091809;28;20196;-76
2023/12/11 00:52:08;;;;;;;0.57;0.57;;;2.80;99.90;;;;;;5093010;28;20173;-76
2023/12/11 00:54:34;;;;;;;0.30;0.20;;;2.90;99.90;;;;;;5091931;28;20207;-76
2023/12/11 00:56:59;;;;;;;0.30;0.20;;;2.90;99.90;;;;;;5092685;28;20375;-77
2023/12/11 00:59:25;;;;;;;0.30;0.20;;;2.90;99.90;;;;;;5093015;28;20658;-76
2023/12/11 01:01:51;;;;;;;0.30;0.20;;;2.90;99.90;;;;;;5092522;28;20759;-77
2023/12/11 01:04:17;;;;;;;0.30;0.20;;;2.90;99.90;;;;;;5092672;28;20196;-78
2023/12/11 01:06:42;;;;;;;0.30;0.20;;;2.90;99.90;;;;;;5091582;28;20172;-77
2023/12/11 01:09:08;;;;;;;0.30;0.20;;;2.90;99.90;;;;;;5091347;28;20740;-77
2023/12/11 01:11:34;;;;;;;0.30;0.30;;;2.90;99.90;;;;;;5091296;28;20265;-76
2023/12/11 01:13:59;;;;;;;0.30;0.20;;;2.90;99.90;;;;;;5093023;28;20197;-77
2023/12/11 01:16:25;;;;;;;0.30;0.20;;;2.90;99.90;;;;;;5092749;28;20227;-77
2023/12/11 01:18:51;;;;;;;0.30;0.20;;;2.90;99.90;;;;;;5092239;28;20569;-78
2023/12/11 01:21:17;;;;;;;0.30;0.20;;;2.90;99.90;;;;;;5092298;28;20221;-77
2023/12/11 01:23:43;;;;;;;0.30;0.20;;;2.90;99.90;;;;;;5092822;28;20189;-77
2023/12/11 01:26:09;;;;;;;0.30;0.30;;;2.90;99.90;;;;;;5090749;28;20212;-77
2023/12/11 01:28:35;;;;;;;0.30;0.30;;;2.90;99.90;;;;;;5092683;28;20246;-77
2023/12/11 01:31:00;;;;;;;0.30;0.20;;;2.90;99.90;;;;;;5090287;28;20216;-77
2023/12/11 01:33:26;;;;;;;0.30;0.20;;;2.90;99.90;;;;;;5091188;28;20219;-78
2023/12/11 01:35:52;;;;;;;0.30;0.20;;;2.80;99.90;;;;;;5089608;28;20410;-76
2023/12/11 01:38:18;;;;;;;0.40;0.40;;;2.80;99.90;;;;;;5090199;28;20518;-77
2023/12/11 01:40:44;;;;;;;0.30;0.20;;;2.80;99.90;;;;;;5091883;28;20207;-77
2023/12/11 01:43:18;;;;;;;0.30;0.20;;;2.80;99.90;;;;;;5089580;28;20200;-77
2023/12/11 01:45:50;;;;;;;0.30;0.20;;;2.80;99.90;;;;;;5090319;28;20207;-76
2023/12/11 01:48:16;;;;;;;0.30;0.20;;;2.80;99.90;;;;;;5090748;28;20231;-77
2023/12/11 01:50:42;;;;;;;0.30;0.20;;;2.80;99.90;;;;;;5090262;28;20204;-77
2023/12/11 01:53:08;;;;;;;0.30;0.20;;;2.80;99.90;;;;;;5091704;28;20548;-76
2023/12/11 01:55:35;;;;;;;0.30;0.20;;;2.80;99.90;;;;;;5090613;28;20234;-77
2023/12/11 01:58:02;;;;;;;0.30;0.20;;;2.80;99.90;;;;;;5090282;28;20604;-77
2023/12/11 02:00:29;;;;;;;0.30;0.30;;;2.70;99.90;;;;;;5090372;28;20212;-77
2023/12/11 02:02:54;;;;;;;0.30;0.20;;;2.70;99.90;;;;;;5089864;28;20295;-76
2023/12/11 02:05:20;;;;;;;0.30;0.20;;;2.70;99.90;;;;;;5089809;28;20291;-77
2023/12/11 02:07:46;;;;;;;0.30;0.20;;;2.70;99.90;;;;;;5089671;28;20629;-77
2023/12/11 02:10:12;;;;;;;0.30;0.20;;;2.70;99.90;;;;;;5091871;28;20556;-78
2023/12/11 02:12:39;;;;;;;0.30;0.20;;;2.70;99.90;;;;;;5091543;28;20517;-77
2023/12/11 02:15:05;;;;;;;0.30;0.20;;;2.60;99.90;;;;;;5089853;28;20441;-77
2023/12/11 02:17:31;;;;;;;0.30;0.20;;;2.60;99.90;;;;;;5089774;28;20224;-77
2023/12/11 02:19:57;;;;;;;0.30;0.20;;;2.50;99.90;;;;;;5091069;28;20180;-77
2023/12/11 02:22:24;;;;;;;0.30;0.20;;;2.50;99.90;;;;;;5091375;28;20176;-77
2023/12/11 02:24:55;;;;;;;0.30;0.30;;;2.50;99.90;;;;;;5090858;28;20284;-77
2023/12/11 02:27:23;;;;;;;0.30;0.30;;;2.40;99.90;;;;;;5089923;28;20181;-77
2023/12/11 02:29:50;;;;;;;0.30;0.25;;;2.40;99.90;;;;;;5091015;28;20191;-77
2023/12/11 02:32:16;;;;;;;0.30;0.20;;;2.30;99.90;;;;;;5089020;28;20185;-77
2023/12/11 02:34:42;;;;;;;0.30;0.20;;;2.30;99.90;;;;;;5089611;28;20203;-76
2023/12/11 02:37:08;;;;;;;0.30;0.20;;;2.30;99.90;;;;;;5089559;28;20176;-77
2023/12/11 02:39:34;;;;;;;0.30;0.20;;;2.20;99.90;;;;;;5088981;28;20738;-77
2023/12/11 02:41:59;;;;;;;0.30;0.30;;;2.20;99.90;;;;;;5090489;28;20432;-77
2023/12/11 02:44:25;;;;;;;0.30;0.20;;;2.20;99.90;;;;;;5089927;28;20216;-77
2023/12/11 02:46:51;;;;;;;0.30;0.20;;;2.20;99.90;;;;;;5089184;28;20183;-77
2023/12/11 02:49:16;;;;;;;0.30;0.20;;;2.20;99.90;;;;;;5089340;28;20416;-77
2023/12/11 02:51:42;;;;;;;0.30;0.20;;;2.20;99.90;;;;;;5089154;28;20696;-77
2023/12/11 02:54:08;;;;;;;0.30;0.30;;;2.20;99.90;;;;;;5090607;28;20212;-77
2023/12/11 02:56:37;;;;;;;0.30;0.30;;;2.20;99.90;;;;;;5090449;28;20182;-77
2023/12/11 02:59:02;;;;;;;0.30;0.30;;;2.20;99.90;;;;;;5089334;28;20600;-77
2023/12/11 03:01:28;;;;;;;0.30;0.20;;;2.20;99.90;;;;;;5089164;28;20176;-77
2023/12/11 03:03:54;;;;;;;0.30;0.20;;;2.10;99.90;;;;;;5090650;28;20784;-76
2023/12/11 03:06:19;;;;;;;0.30;0.20;;;2.10;99.90;;;;;;5089018;28;20212;-78
2023/12/11 03:08:45;;;;;;;0.30;0.20;;;2.10;99.90;;;;;;5090330;28;20200;-77
2023/12/11 03:11:11;;;;;;;0.30;0.20;;;2.10;99.90;;;;;;5090552;28;20367;-76
2023/12/11 03:13:37;;;;;;;0.30;0.20;;;2.00;99.90;;;;;;5090574;28;20453;-77
2023/12/11 03:16:03;;;;;;;0.30;0.30;;;2.00;99.90;;;;;;5089963;28;20393;-78
2023/12/11 03:18:28;;;;;;;0.30;0.20;;;2.00;99.90;;;;;;5089306;28;20208;-78
2023/12/11 03:20:54;;;;;;;0.30;0.20;;;2.10;99.90;;;;;;5089903;28;20395;-78
2023/12/11 03:23:20;;;;;;;0.30;0.20;;;2.00;99.90;;;;;;5090447;28;20201;-77
2023/12/11 03:25:46;;;;;;;0.30;0.20;;;2.10;99.90;;;;;;5089803;28;20245;-77
2023/12/11 03:28:11;;;;;;;0.30;0.20;;;2.00;99.90;;;;;;5088838;28;20220;-77
2023/12/11 03:30:37;;;;;;;0.30;0.20;;;2.10;99.90;;;;;;5089563;28;20176;-77
2023/12/11 03:33:03;;;;;;;0.30;0.20;;;2.10;99.90;;;;;;5088252;28;20559;-77
2023/12/11 03:35:28;;;;;;;0.30;0.20;;;2.00;99.90;;;;;;5089974;28;20173;-77
2023/12/11 03:37:54;;;;;;;0.30;0.20;;;1.90;99.90;;;;;;5088326;28;20208;-77
2023/12/11 03:40:20;;;;;;;0.30;0.20;;;1.90;99.90;;;;;;5087634;28;20169;-77
2023/12/11 03:42:45;;;;;;;0.30;0.20;;;1.90;99.90;;;;;;5090046;28;20179;-77
2023/12/11 03:45:11;;;;;;;0.30;0.20;;;1.90;99.90;;;;;;5090102;28;20457;-78
2023/12/11 03:47:37;;;;;;;0.37;0.27;;;1.90;99.90;;;;;;5088586;28;20188;-77
2023/12/11 03:50:02;;;;;;;0.30;0.20;;;1.90;99.90;;;;;;5089745;28;20168;-77
2023/12/11 03:52:28;;;;;;;0.30;0.20;;;1.90;99.90;;;;;;5090230;28;20650;-78
2023/12/11 03:54:54;;;;;;;0.30;0.20;;;1.80;99.90;;;;;;5089242;28;20413;-77
2023/12/11 03:57:20;;;;;;;0.30;0.20;;;1.80;99.90;;;;;;5089810;28;20233;-77
2023/12/11 03:59:45;;;;;;;0.30;0.20;;;1.80;99.90;;;;;;5089364;28;20396;-77
2023/12/11 04:02:11;;;;;;;0.30;0.20;;;1.90;99.90;;;;;;5089606;28;20658;-77
2023/12/11 04:04:37;;;;;;;0.30;0.30;;;1.80;99.90;;;;;;5088197;28;20295;-77
2023/12/11 04:07:03;;;;;;;0.30;0.20;;;1.80;99.90;;;;;;5091633;28;20180;-79
2023/12/11 04:09:28;;;;;;;0.30;0.20;;;1.70;99.90;;;;;;5092628;28;20199;-77
2023/12/11 04:11:54;;;;;;;0.30;0.20;;;1.80;99.90;;;;;;5093632;28;20161;-77
2023/12/11 04:14:20;;;;;;;0.30;0.20;;;1.70;99.90;;;;;;5094339;28;20680;-77
2023/12/11 04:16:46;;;;;;;0.30;0.20;;;1.70;99.90;;;;;;5091855;28;20247;-76
2023/12/11 04:19:12;;;;;;;0.30;0.20;;;1.80;99.90;;;;;;5093727;28;20285;-76
2023/12/11 04:21:37;;;;;;;0.30;0.20;;;1.80;99.90;;;;;;5092334;28;20588;-76
2023/12/11 04:24:04;;;;;;;0.30;0.20;;;1.90;99.90;;;;;;5092448;28;20219;-76
2023/12/11 04:26:29;;;;;;;0.30;0.20;;;1.90;99.90;;;;;;5093552;28;20447;-76
2023/12/11 04:28:55;;;;;;;0.30;0.20;;;1.90;99.90;;;;;;5093546;28;20219;-77
2023/12/11 04:31:23;;;;;;;0.30;0.20;;;1.90;99.90;;;;;;5092933;28;20176;-77
2023/12/11 04:33:49;;;;;;;0.30;0.20;;;2.00;99.90;;;;;;5091888;28;20445;-77
2023/12/11 04:36:15;;;;;;;0.30;0.20;;;2.00;99.90;;;;;;5091701;28;20625;-76
2023/12/11 04:38:41;;;;;;;0.30;0.20;;;2.00;99.90;;;;;;5093789;28;20252;-77
2023/12/11 04:41:06;;;;;;;0.30;0.20;;;2.10;99.90;;;;;;5090993;28;20175;-78
2023/12/11 04:43:35;;;;;;;0.30;0.20;;;2.10;99.90;;;;;;5091859;28;20462;-77
2023/12/11 04:46:01;;;;;;;0.30;0.20;;;2.10;99.90;;;;;;5090860;28;20208;-77
2023/12/11 04:48:26;;;;;;;0.30;0.20;;;2.10;99.90;;;;;;5093565;28;20692;-77
2023/12/11 04:50:52;;;;;;;0.30;0.20;;;2.10;99.90;;;;;;5092757;28;20376;-77
2023/12/11 04:53:18;;;;;;;0.30;0.20;;;2.10;99.90;;;;;;5093073;28;20502;-77
2023/12/11 04:55:43;;;;;;;0.30;0.20;;;2.10;99.90;;;;;;5092730;28;20179;-77
2023/12/11 04:58:09;;;;;;;0.30;0.20;;;2.10;99.90;;;;;;5093199;28;20197;-77
2023/12/11 05:00:35;;;;;;;0.30;0.20;;;2.10;99.90;;;;;;5092651;28;20444;-77
2023/12/11 05:03:00;;;;;;;0.30;0.20;;;2.10;99.90;;;;;;5090597;28;20208;-77
2023/12/11 05:05:26;;;;;;;0.30;0.20;;;2.10;99.90;;;;;;5092118;28;20243;-77
2023/12/11 05:07:52;;;;;;;0.30;0.20;;;2.10;99.90;;;;;;5092795;28;20283;-78
2023/12/11 05:10:17;;;;;;;0.30;0.20;;;2.10;99.90;;;;;;5090821;28;20184;-77
2023/12/11 05:12:43;;;;;;;0.30;0.20;;;2.10;99.90;;;;;;5092618;28;20181;-77
2023/12/11 05:15:09;;;;;;;0.30;0.20;;;2.10;99.90;;;;;;5091022;28;20176;-77
2023/12/11 05:17:34;;;;;;;0.30;0.20;;;2.20;99.90;;;;;;5091486;28;20586;-78
2023/12/11 05:20:00;;;;;;;0.30;0.20;;;2.20;99.90;;;;;;5090046;28;20516;-77
2023/12/11 05:22:26;;;;;;;0.30;0.20;;;2.10;99.90;;;;;;5092299;28;20232;-78
2023/12/11 05:24:51;;;;;;;0.30;0.20;;;2.10;99.90;;;;;;5091351;28;20208;-78
2023/12/11 05:27:18;;;;;;;0.30;0.20;;;2.10;99.90;;;;;;5091980;28;20181;-77
2023/12/11 05:29:43;;;;;;;0.30;0.20;;;2.10;99.90;;;;;;5089981;28;20465;-77
2023/12/11 05:32:10;;;;;;;0.30;0.20;;;2.10;99.90;;;;;;5089683;28;20184;-78
2023/12/11 05:34:36;;;;;;;0.30;0.20;;;2.10;99.90;;;;;;5090305;28;21020;-77
2023/12/11 05:37:01;;;;;;;0.30;0.20;;;2.10;99.90;;;;;;5070240;28;20177;-77
2023/12/11 05:39:27;;;;;;;0.30;0.20;;;2.00;99.90;;;;;;5083806;28;20337;-78
2023/12/11 05:41:53;;;;;;;0.30;0.20;;;2.10;99.90;;;;;;5090366;28;20641;-76
2023/12/11 05:44:19;;;;;;;0.30;0.20;;;2.00;99.90;;;;;;5091116;28;20693;-78
2023/12/11 05:46:44;;;;;;;0.30;0.20;;;2.00;99.90;;;;;;5088928;28;20177;-76
2023/12/11 05:49:10;;;;;;;0.30;0.20;;;2.00;99.90;;;;;;5088007;28;20583;-77
2023/12/11 05:51:36;;;;;;;0.30;0.20;;;2.00;99.90;;;;;;5087028;28;20850;-76
2023/12/11 05:54:02;;;;;;;0.30;0.20;;;2.00;99.90;;;;;;5081069;28;20438;-77
2023/12/11 05:56:30;;;;;;;0.30;0.30;;;2.00;99.90;;;;;;5087178;28;20505;-77
2023/12/11 05:58:56;;;;;;;0.30;0.20;;;1.90;99.90;;;;;;5087160;28;20228;-78
2023/12/11 06:01:21;;;;;;;0.30;0.20;;;1.90;99.90;;;;;;5083855;28;20376;-77
2023/12/11 06:03:47;;;;;;;0.30;0.20;;;1.90;99.90;;;;;;5088929;28;20510;-77
2023/12/11 06:06:16;;;;;;;0.30;0.20;;;2.00;99.90;;;;;;5077151;28;20842;-77
2023/12/11 06:08:43;;;;;;;0.30;0.20;;;2.00;99.90;;;;;;5097885;28;20208;-77
2023/12/11 06:11:09;;;;;;;0.30;0.20;;;2.00;99.90;;;;;;5080979;28;20413;-77
2023/12/11 06:13:35;;;;;;;0.30;0.20;;;2.00;99.90;;;;;;5084399;28;20204;-77
2023/12/11 06:16:00;;;;;;;0.30;0.20;;;2.00;99.90;;;;;;5085008;28;20264;-77
2023/12/11 06:18:26;;;;;;;0.30;0.20;;;2.10;99.90;;;;;;5081176;28;20719;-77
2023/12/11 06:20:52;;;;;;;0.30;0.20;;;2.10;99.90;;;;;;5083534;28;20180;-77
2023/12/11 06:23:18;;;;;;;0.30;0.20;;;2.10;99.90;;;;;;5086561;28;20246;-77
2023/12/11 06:25:43;;;;;;;0.30;0.20;;;2.20;99.90;;;;;;5086068;28;20239;-77
2023/12/11 06:28:09;;;;;;;0.30;0.20;;;2.20;99.90;;;;;;5095170;28;20457;-77
2023/12/11 06:30:35;;;;;;;0.30;0.20;;;2.30;99.90;;;;;;5080486;28;20173;-76
2023/12/11 06:33:00;;;;;;;0.30;0.20;;;2.30;99.90;;;;;;5080922;28;20236;-77
2023/12/11 06:35:26;;;;;;;0.30;0.20;;;2.30;99.90;;;;;;5078802;28;20172;-77
2023/12/11 06:37:52;;;;;;;0.30;0.20;;;2.40;99.90;;;;;;5086075;28;20778;-77
2023/12/11 06:40:17;;;;;;;0.30;0.20;;;2.40;99.90;;;;;;5086746;28;20199;-78
2023/12/11 06:42:43;;;;;;;0.30;0.20;;;2.50;99.90;;;;;;5082667;28;20522;-76
2023/12/11 06:45:11;;;;;;;0.30;0.20;;;2.50;99.90;;;;;;5081397;28;20242;-78
2023/12/11 06:47:36;;;;;;;0.30;0.25;;;2.40;99.90;;;;;;5085922;28;20189;-78
2023/12/11 06:50:03;;;;;;;0.30;0.20;;;2.40;99.90;;;;;;5084656;28;20218;-77
2023/12/11 06:52:29;;;;;;;0.30;0.20;;;2.50;99.90;;;;;;5079933;28;20360;-77
2023/12/11 06:54:54;;;;;;;0.30;0.20;;;2.50;99.90;;;;;;5073487;28;20212;-77
2023/12/11 06:57:20;;;;;;;0.30;0.20;;;2.60;99.90;;;;;;5078779;28;20185;-77
2023/12/11 06:59:47;;;;;;;0.30;0.20;;;2.60;99.90;;;;;;5073711;28;21006;-77
2023/12/11 07:02:13;;;;;;;0.30;0.20;;;2.70;99.90;;;;;;5087559;28;20188;-77
2023/12/11 07:04:42;;;;;;;0.30;0.20;;;2.70;99.90;;;;;;5084332;28;20457;-77
2023/12/11 07:07:07;;;;;;;0.30;0.20;;;2.70;99.90;;;;;;5084592;28;20400;-78
2023/12/11 07:09:33;;;;;;;0.30;0.20;;;2.80;99.90;;;;;;5078207;28;20193;-78
2023/12/11 07:11:59;;;;;;;0.30;0.20;;;2.80;99.90;;;;;;5075358;28;20411;-79
2023/12/11 07:14:25;;;;;;;0.30;0.20;;;2.90;99.90;;;;;;5081390;28;20639;-78
2023/12/11 07:16:51;;;;;;;0.30;0.20;;;3.00;99.90;;;;;;5081949;28;20476;-78
2023/12/11 07:19:19;;;;;;;0.30;0.20;;;3.00;99.90;;;;;;5065804;28;20931;-78
2023/12/11 07:21:45;;;;;;;0.30;0.30;;;3.00;99.90;;;;;;5087075;28;20185;-78
2023/12/11 07:24:11;;;;;;;0.30;0.20;;;3.00;99.90;;;;;;5065921;28;20224;-78
2023/12/11 07:26:37;;;;;;;0.30;0.20;;;3.10;99.90;;;;;;5073775;28;20632;-79
2023/12/11 07:29:04;;;;;;;0.30;0.20;;;3.10;99.90;;;;;;5074108;28;20691;-79
2023/12/11 07:31:30;;;;;;;0.30;0.20;;;3.10;99.90;;;;;;5074816;28;20177;-79
2023/12/11 07:33:56;;;;;;;0.30;0.20;;;3.10;99.90;;;;;;5079138;28;20208;-79
2023/12/11 07:36:23;;;;;;;0.40;0.37;;;3.10;99.90;;;;;;5081502;28;20191;-78
2023/12/11 07:38:49;;;;;;;0.30;0.20;;;3.10;99.90;;;;;;5085425;28;20208;-79
2023/12/11 07:41:22;;;;;;;0.30;0.20;;;3.20;99.90;;;;;;5084600;28;20225;-79
2023/12/11 07:43:47;;;;;;;0.30;0.20;;;3.20;99.90;;;;;;5102241;28;20201;-79
2023/12/11 07:46:20;;;;;;;0.30;0.20;;;3.30;99.90;;;;;;5078029;28;20204;-79
2023/12/11 07:48:46;;;;;;;0.30;0.20;;;3.30;99.90;;;;;;5083445;28;20689;-79
2023/12/11 07:51:25;;;;;;;0.30;0.20;;;3.30;99.90;;;;;;5086850;28;20712;-79
2023/12/11 07:53:53;;;;;;;0.30;0.20;;;3.30;99.90;;;;;;5085141;28;20218;-79
2023/12/11 07:56:20;;;;;;;0.30;0.20;;;3.30;99.90;;;;;;5088649;28;20204;-78
2023/12/11 07:58:46;;;;;;;0.30;0.20;;;3.40;99.90;;;;;;5083849;28;20756;-78
2023/12/11 08:01:12;;;;;;;0.30;0.20;;;3.40;99.90;;;;;;5085527;28;20263;-78
2023/12/11 08:03:37;;;;;;;0.30;0.20;;;3.40;99.90;;;;;;5085501;28;20793;-78
2023/12/11 08:06:03;;;;;;;0.30;0.20;;;3.50;99.90;;;;;;5076766;28;20902;-78
2023/12/11 08:08:29;;;;;;;0.30;0.20;;;3.50;99.90;;;;;;5066121;28;20200;-79
2023/12/11 08:10:55;;;;;;;0.30;0.20;;;3.60;99.90;;;;;;5082413;28;20801;-79
2023/12/11 08:13:20;;;;;;;0.30;0.20;;;3.60;99.90;;;;;;5079482;28;20203;-78
2023/12/11 08:15:46;;;;;;;0.30;0.20;;;3.70;99.90;;;;;;5084424;28;20174;-79
2023/12/11 08:18:12;;;;;;;0.30;0.20;;;3.70;99.90;;;;;;5083518;28;20463;-78
2023/12/11 08:20:37;;;;;;;0.30;0.20;;;3.70;99.90;;;;;;5083855;28;20664;-78
2023/12/11 08:23:03;;;;;;;0.30;0.20;;;3.70;99.90;;;;;;5083755;28;20955;-78
2023/12/11 08:25:29;;;;;;;0.30;0.20;;;3.70;99.90;;;;;;5079921;28;20720;-78
2023/12/11 08:27:55;;;;;;;0.30;0.20;;;3.80;99.90;;;;;;5083464;28;20204;-78
2023/12/11 08:30:20;;;;;;;0.30;0.20;;;3.80;99.90;;;;;;5085185;28;20181;-79
2023/12/11 08:32:46;;;;;;;0.30;0.20;;;3.80;99.90;;;;;;5073750;28;20279;-79
2023/12/11 08:35:12;;;;;;;0.30;0.20;;;3.80;99.90;;;;;;5068187;28;20494;-78
2023/12/11 08:37:37;;;;;;;0.30;0.20;;;3.90;99.90;;;;;;5083887;28;20261;-80
2023/12/11 08:40:04;;;;;;;0.30;0.20;;;3.90;99.90;;;;;;5087579;28;20207;-80
2023/12/11 08:42:32;;;;;;;0.30;0.20;;;3.90;99.90;;;;;;5083549;28;20404;-84
2023/12/11 08:44:58;;;;;;;0.30;0.20;;;3.90;99.90;;;;;;5088534;28;20495;-81
2023/12/11 08:47:23;;;;;;;0.30;0.20;;;3.90;99.90;;;;;;5080859;28;20255;-82
2023/12/11 08:49:49;;;;;;;0.30;0.20;;;4.00;99.90;;;;;;5086261;28;20196;-84
2023/12/11 08:52:15;;;;;;;0.30;0.20;;;4.00;99.90;;;;;;5095454;28;20175;-84
2023/12/11 08:54:41;;;;;;;0.30;0.20;;;4.00;99.90;;;;;;5093001;28;20208;-85
2023/12/11 08:57:07;;;;;;;0.30;0.20;;;4.10;99.90;;;;;;5087125;28;20197;-81
2023/12/11 08:59:33;;;;;;;0.30;0.20;;;4.10;99.90;;;;;;5084573;28;20781;-82
2023/12/11 09:01:59;;;;;;;0.30;0.20;;;4.10;99.90;;;;;;5084020;28;20840;-83
2023/12/11 09:04:25;;;;;;;0.30;0.20;;;4.10;99.90;;;;;;5090374;28;20192;-82
2023/12/11 09:06:51;;;;;;;0.30;0.20;;;4.10;99.90;;;;;;5100862;28;20655;-79
2023/12/11 09:09:16;;;;;;;0.30;0.20;;;4.20;99.90;;;;;;5091457;28;20207;-82
2023/12/11 09:11:42;;;;;;;0.30;0.20;;;4.20;99.90;;;;;;5088631;28;20358;-82
2023/12/11 09:14:08;;;;;;;0.30;0.20;;;4.10;99.90;;;;;;5098823;28;20679;-84
2023/12/11 09:16:33;;;;;;;0.30;0.20;;;4.20;99.90;;;;;;5084012;28;20720;-81
2023/12/11 09:18:59;;;;;;;0.30;0.20;;;4.20;99.90;;;;;;5093690;28;20718;-84
2023/12/11 09:21:24;;;;;;;0.30;0.20;;;4.20;99.90;;;;;;5087430;28;20192;-80
2023/12/11 09:23:50;;;;;;;0.30;0.20;;;4.20;99.90;;;;;;5105485;27;20204;-79
2023/12/11 09:26:16;;;;;;;0.30;0.20;;;4.20;99.90;;;;;;5088036;28;20271;-82
2023/12/11 09:28:42;;;;;;;0.30;0.20;;;4.20;99.90;;;;;;5082210;28;20236;-79
2023/12/11 09:31:09;;;;;;;0.30;0.20;;;4.30;99.90;;;;;;5075642;28;20788;-85
2023/12/11 09:33:35;;;;;;;0.30;0.20;;;4.30;99.90;;;;;;5083616;28;20247;-82
2023/12/11 09:36:00;;;;;;;0.30;0.20;;;4.30;99.90;;;;;;5109718;27;20181;-80
2023/12/11 09:38:26;;;;;;;0.30;0.20;;;4.30;99.90;;;;;;5082880;27;20763;-82
2023/12/11 09:40:52;;;;;;;0.30;0.20;;;4.30;99.90;;;;;;5071988;28;20204;-82
2023/12/11 09:43:19;;;;;;;0.30;0.20;;;4.30;99.90;;;;;;5088200;28;20204;-82
2023/12/11 09:45:47;;;;;;;0.30;0.20;;;4.40;99.90;;;;;;5084071;28;20192;-82
2023/12/11 09:48:13;;;;;;;0.30;0.20;;;4.40;99.90;;;;;;5088219;28;20581;-80
2023/12/11 09:50:39;;;;;;;0.30;0.20;;;4.40;99.90;;;;;;5075721;28;20283;-83
2023/12/11 09:53:04;;;;;;;0.30;0.20;;;4.50;99.90;;;;;;5060826;28;20583;-84
2023/12/11 09:55:30;;;;;;;0.30;0.20;;;4.60;99.90;;;;;;5064072;28;20618;-82
2023/12/11 09:57:56;;;;;;;0.30;0.30;;;4.60;99.90;;;;;;5068245;28;20866;-79
2023/12/11 10:00:23;;;;;;;0.30;0.20;;;4.70;99.90;;;;;;5077068;28;21038;-81
2023/12/11 10:02:53;;;;;;;0.30;0.20;;;4.80;99.90;;;;;;5078474;28;20188;-84
2023/12/11 10:05:25;;;;;;;0.30;0.20;;;4.90;99.90;;;;;;5082486;28;20209;-81
2023/12/11 10:07:51;;;;;;;0.30;0.20;;;4.90;99.90;;;;;;5081133;28;20200;-79
2023/12/11 10:10:23;;;;;;;0.30;0.20;;;4.90;99.90;;;;;;5082264;28;20177;-83
2023/12/11 10:12:49;;;;;;;0.30;0.20;;;4.90;99.90;;;;;;5080605;28;20193;-80
2023/12/11 10:15:24;;;;;;;0.30;0.20;;;4.90;99.90;;;;;;5089578;28;20173;-78
2023/12/11 10:18:06;;;;;;;0.30;0.20;;;5.00;99.90;;;;;;5084885;28;20226;-79
2023/12/11 10:20:37;;;;;;;0.30;0.20;;;5.10;99.90;;;;;;5082418;28;20168;-79
2023/12/11 10:23:14;;;;;;;0.30;0.20;;;5.10;99.90;;;;;;5080664;28;20204;-79
2023/12/11 10:25:42;;;;;;;0.30;0.20;;;5.10;99.90;;;;;;5063071;28;20219;-78
2023/12/11 10:28:10;;;;;;;0.30;0.20;;;5.10;99.90;;;;;;5079238;28;20674;-79
2023/12/11 10:30:55;;;;;;;0.30;0.20;;;5.10;99.90;;;;;;5077157;28;20249;-79
2023/12/11 10:33:24;;;;;;;2.47;2.38;;;5.10;99.90;;;;;;5083964;28;20192;-79
2023/12/11 10:35:50;;;;;;;0.30;0.30;;;5.10;99.90;;;;;;5088133;28;20527;-79
2023/12/11 10:38:23;;;;;;;0.30;0.20;;;5.10;99.90;;;;;;5086624;28;20310;-79
2023/12/11 10:40:49;;;;;;;0.30;0.20;;;5.10;99.90;;;;;;5081027;28;20680;-79
2023/12/11 10:43:16;;;;;;;0.30;0.20;;;5.30;99.90;;;;;;5088739;28;20203;-79
2023/12/11 10:45:42;;;;;;;0.30;0.20;;;5.50;99.90;;;;;;5089175;28;20790;-79
2023/12/11 10:48:08;;;;;;;0.30;0.20;;;5.70;99.90;;;;;;5074220;28;20241;-79
2023/12/11 10:50:36;;;;;;;0.30;0.20;;;5.90;99.90;;;;;;5077141;28;20391;-79
2023/12/11 10:53:02;;;;;;;0.30;0.20;;;6.10;99.90;;;;;;5083384;28;20204;-79
2023/12/11 10:55:29;;;;;;;0.30;0.20;;;6.40;99.90;;;;;;5088539;28;20173;-78
2023/12/11 10:57:58;;;;;;;3.85;3.65;;;6.60;99.90;;;;;;5083133;28;20937;-78
2023/12/11 11:00:24;;;;;;;0.30;0.20;;;6.70;99.90;;;;;;5088605;28;20216;-79
2023/12/11 11:02:54;;;;;;;0.30;0.20;;;6.80;99.90;;;;;;5086876;28;20190;-79
2023/12/11 11:05:22;;;;;;;0.30;0.30;;;6.80;99.90;;;;;;5086714;28;20219;-78
2023/12/11 11:08:01;;;;;;;0.30;0.20;;;6.90;99.90;;;;;;5086325;28;20283;-78
2023/12/11 11:10:32;;;;;;;0.30;0.20;;;6.90;99.90;;;;;;5081040;28;20180;-79
2023/12/11 11:13:08;;;;;;;1.95;1.85;;;7.00;99.90;;;;;;5083313;28;20188;-79
2023/12/11 11:15:34;;;;;;;0.30;0.20;;;7.10;99.90;;;;;;5095358;28;20180;-79
2023/12/11 11:18:01;;;;;;;0.30;0.20;;;7.20;99.90;;;;;;5092491;28;20235;-78
2023/12/11 11:20:28;;;;;;;0.30;0.20;;;7.30;99.90;;;;;;5077510;28;20472;-78
2023/12/11 11:23:13;;;;;;;0.30;0.20;;;7.40;99.90;;;;;;5087477;28;20199;-78
2023/12/11 11:25:40;;;;;;;1.25;1.25;;;7.50;99.90;;;;;;5076945;28;20581;-78
2023/12/11 11:28:06;;;;;;;0.30;0.20;;;7.70;99.90;;;;;;5078422;28;20647;-79
2023/12/11 11:30:41;;;;;;;0.57;0.57;;;7.80;99.90;;;;;;5085762;28;20218;-79
2023/12/11 11:33:10;;;;;;;4.80;4.55;;;7.90;99.90;;;;;;5080888;28;20705;-78
2023/12/11 11:35:45;;;;;;;2.67;2.58;;;7.90;99.90;;;;;;5082245;28;20169;-79
2023/12/11 11:38:11;;;;;;;0.30;0.20;;;7.90;99.90;;;;;;5081710;28;20306;-79
2023/12/11 11:40:36;;;;;;;0.30;0.20;;;7.80;99.90;;;;;;5081300;28;20262;-78
2023/12/11 11:43:03;;;;;;;0.30;0.20;;;7.70;99.90;;;;;;5085340;28;20569;-78
2023/12/11 11:45:32;;;;;;;0.40;0.40;;;7.70;99.90;;;;;;5086293;28;20607;-79
2023/12/11 11:47:57;;;;;;;0.30;0.20;;;7.80;99.90;;;;;;5077882;28;20600;-79
2023/12/11 11:50:23;;;;;;;0.30;0.20;;;7.70;99.90;;;;;;5076463;28;20176;-79
2023/12/11 11:53:07;;;;;;;0.30;0.20;;;7.70;99.90;;;;;;5106909;27;20199;-78
2023/12/11 11:55:36;;;;;;;0.30;0.25;;;7.70;99.90;;;;;;5080514;28;20419;-79
2023/12/11 11:58:12;;;;;;;0.30;0.20;;;7.80;99.90;;;;;;5070297;28;20247;-78
2023/12/11 12:00:37;;;;;;;0.38;0.30;;;7.80;99.90;;;;;;5079609;28;20210;-78
2023/12/11 12:03:04;;;;;;;0.53;0.50;;;7.90;99.90;;;;;;5075341;28;20299;-79
2023/12/11 12:05:30;;;;;;;0.32;0.30;;;7.90;99.90;;;;;;5080205;28;20288;-79
2023/12/11 12:07:56;;;;;;;3.80;1.83;;;8.10;99.90;;;;;;5079483;28;20214;-79
2023/12/11 12:10:22;;;;;;;2.50;2.30;;;8.30;99.90;;;;;;5084046;28;20180;-79
2023/12/11 12:12:55;;;;;;;0.30;0.30;;;8.40;99.90;;;;;;5084266;28;20421;-78
2023/12/11 12:15:20;;;;;;;0.40;0.40;;;8.50;99.90;;;;;;5077104;28;20633;-79
2023/12/11 12:17:46;;;;;;;0.30;0.20;;;8.60;99.90;;;;;;5081158;28;20269;-78
2023/12/11 12:20:13;;;;;;;0.93;0.93;;;8.60;99.90;;;;;;5089662;28;20222;-79
2023/12/11 12:22:58;;;;;;;0.30;0.20;;;8.60;99.90;;;;;;5084772;28;20718;-78
2023/12/11 12:25:24;;;;;;;1.50;1.40;;;8.70;99.90;;;;;;5081504;28;20291;-78
2023/12/11 12:28:20;;;;;;;0.30;0.20;;;8.70;99.90;;;;;;5083464;28;20804;-79
2023/12/11 12:30:46;;;;;;;0.30;0.20;;;8.80;99.90;;;;;;5074794;28;20203;-79
2023/12/11 12:33:12;;;;;;;0.30;0.20;;;8.90;99.90;;;;;;5070168;28;20203;-77
2023/12/11 12:35:38;;;;;;;0.30;0.20;;;8.90;99.90;;;;;;5070089;28;20547;-78
2023/12/11 12:38:07;;;;;;;0.30;0.20;;;8.80;99.90;;;;;;5070908;28;20197;-78
2023/12/11 12:40:34;;;;;;;0.30;0.20;;;8.90;99.90;;;;;;5069511;28;21614;-78
2023/12/11 12:43:09;;;;;;;0.30;0.20;;;8.90;99.90;;;;;;5067949;28;20207;-78
2023/12/11 12:45:34;;;;;;;0.40;0.40;;;8.90;99.90;;;;;;5068761;28;20242;-78
2023/12/11 12:48:00;;;;;;;0.30;0.20;;;8.90;99.90;;;;;;5070967;28;20306;-77
2023/12/11 12:50:29;;;;;;;0.30;0.20;;;8.90;99.90;;;;;;5071659;28;20221;-78
2023/12/11 12:53:05;;;;;;;0.30;0.20;;;9.00;99.90;;;;;;5085670;28;20726;-79
2023/12/11 12:55:31;;;;;;;0.30;0.20;;;9.10;99.90;;;;;;5090093;28;20184;-78